createdAt,value
2022-10-28T00:01:29.007Z,5.13
2022-10-28T00:03:58.292Z,4.25
2022-10-28T00:06:28.094Z,5.32
2022-10-28T00:09:01.063Z,4.22
2022-10-28T00:11:30.322Z,3.85
2022-10-28T00:13:58.879Z,5.63
2022-10-28T00:16:30.720Z,5.18
2022-10-28T00:18:58.596Z,3.85
2022-10-28T00:21:31.000Z,4.28
2022-10-28T00:23:58.310Z,3.95
2022-10-28T00:26:30.680Z,4.20
2022-10-28T00:29:09.633Z,4.30
2022-10-28T00:31:37.168Z,5.63
2022-10-28T00:34:05.686Z,3.63
2022-10-28T00:36:35.552Z,3.72
2022-10-28T00:39:03.695Z,4.40
2022-10-28T00:41:33.516Z,4.03
2022-10-28T00:44:04.110Z,4.38
2022-10-28T00:46:45.397Z,3.70
2022-10-28T00:49:24.229Z,4.15
2022-10-28T00:51:58.781Z,3.63
2022-10-28T00:54:26.581Z,3.92
2022-10-28T00:56:58.244Z,4.05
2022-10-28T00:59:28.183Z,4.60
2022-10-28T01:01:55.469Z,4.32
2022-10-28T01:04:23.426Z,3.95
2022-10-28T01:06:51.595Z,4.57
2022-10-28T01:09:18.318Z,4.47
2022-10-28T01:12:00.140Z,4.28
2022-10-28T01:14:47.533Z,4.90
2022-10-28T01:17:32.725Z,4.68
2022-10-28T01:20:08.377Z,4.75
2022-10-28T01:22:40.941Z,5.68
2022-10-28T01:25:35.591Z,4.78
2022-10-28T01:28:14.513Z,4.10
2022-10-28T01:31:18.644Z,4.45
2022-10-28T01:33:54.432Z,5.13
2022-10-28T01:36:50.211Z,4.20
2022-10-28T01:39:31.459Z,3.85
2022-10-28T01:42:00.896Z,4.20
2022-10-28T01:44:49.271Z,3.65
2022-10-28T01:47:34.908Z,3.50
2022-10-28T01:50:07.811Z,3.80
2022-10-28T01:52:34.883Z,4.05
2022-10-28T01:55:23.572Z,4.57
2022-10-28T01:57:52.672Z,3.53
2022-10-28T02:00:19.528Z,4.28
2022-10-28T02:02:48.137Z,3.97
2022-10-28T02:05:44.553Z,5.20
2022-10-28T02:08:20.228Z,3.90
2022-10-28T02:11:07.025Z,3.88
2022-10-28T02:13:46.779Z,3.30
2022-10-28T02:16:36.917Z,3.47
2022-10-28T02:19:12.611Z,4.43
2022-10-28T02:21:46.771Z,3.28
2022-10-28T02:24:22.991Z,4.10
2022-10-28T02:27:00.090Z,3.47
2022-10-28T02:29:38.811Z,3.35
2022-10-28T02:32:12.287Z,4.28
2022-10-28T02:34:47.318Z,3.05
2022-10-28T02:37:30.037Z,3.78
2022-10-28T02:40:01.698Z,2.80
2022-10-28T02:42:33.644Z,4.22
2022-10-28T02:45:07.338Z,3.55
2022-10-28T02:47:37.920Z,3.20
2022-10-28T02:50:09.458Z,3.90
2022-10-28T02:52:36.626Z,4.90
2022-10-28T02:55:05.448Z,3.85
2022-10-28T02:57:36.152Z,3.13
2022-10-28T03:00:08.171Z,3.78
2022-10-28T03:02:34.976Z,3.65
2022-10-28T03:05:03.101Z,4.03
2022-10-28T03:07:29.966Z,3.47
2022-10-28T03:09:56.563Z,2.95
2022-10-28T03:12:23.153Z,4.30
2022-10-28T03:14:49.847Z,3.17
2022-10-28T03:17:16.509Z,3.60
2022-10-28T03:19:43.114Z,3.60
2022-10-28T03:22:09.719Z,3.65
2022-10-28T03:24:36.422Z,3.95
2022-10-28T03:27:03.151Z,4.80
2022-10-28T03:29:29.739Z,5.88
2022-10-28T03:31:56.448Z,3.55
2022-10-28T03:34:23.681Z,3.75
2022-10-28T03:36:50.364Z,3.95
2022-10-28T03:39:17.058Z,4.07
2022-10-28T03:41:43.655Z,3.20
2022-10-28T03:44:10.269Z,4.35
2022-10-28T03:46:36.892Z,4.07
2022-10-28T03:49:04.102Z,4.90
2022-10-28T03:51:30.718Z,4.15
2022-10-28T03:53:57.356Z,3.53
2022-10-28T03:56:23.995Z,3.97
2022-10-28T04:01:17.490Z,4.45
2022-10-28T04:03:44.898Z,4.32
2022-10-28T04:06:11.639Z,5.43
2022-10-28T04:08:38.606Z,4.53
2022-10-28T04:11:05.522Z,4.07
2022-10-28T04:13:32.165Z,4.35
2022-10-28T04:15:58.808Z,3.88
2022-10-28T04:18:25.482Z,4.25
2022-10-28T04:20:52.207Z,4.72
2022-10-28T04:23:19.538Z,3.60
2022-10-28T04:25:46.634Z,3.58
2022-10-28T04:28:13.317Z,3.88
2022-10-28T04:30:39.908Z,3.65
2022-10-28T04:33:06.553Z,3.40
2022-10-28T04:35:33.820Z,3.80
2022-10-28T04:38:00.598Z,4.03
2022-10-28T04:40:27.232Z,4.25
2022-10-28T04:42:54.211Z,3.10
2022-10-28T04:45:20.999Z,4.43
2022-10-28T04:47:47.834Z,3.05
2022-10-28T04:50:14.603Z,3.50
2022-10-28T04:52:41.203Z,3.53
2022-10-28T04:55:08.190Z,3.13
2022-10-28T04:57:34.719Z,2.88
2022-10-28T05:00:01.321Z,3.13
2022-10-28T05:02:27.961Z,3.00
2022-10-28T05:04:54.767Z,3.08
2022-10-28T05:07:23.529Z,4.18
2022-10-28T05:09:50.398Z,3.50
2022-10-28T05:12:16.998Z,2.60
2022-10-28T05:14:43.587Z,2.28
2022-10-28T05:17:11.367Z,2.90
2022-10-28T05:19:37.998Z,2.63
2022-10-28T05:22:04.610Z,2.53
2022-10-28T05:24:31.229Z,2.30
2022-10-28T05:26:59.997Z,3.25
2022-10-28T05:29:30.912Z,2.30
2022-10-28T05:32:00.748Z,3.00
2022-10-28T05:34:28.107Z,2.78
2022-10-28T05:36:55.029Z,2.58
2022-10-28T05:39:21.647Z,3.00
2022-10-28T05:41:48.293Z,2.55
2022-10-28T05:44:14.941Z,2.78
2022-10-28T05:46:41.588Z,2.47
2022-10-28T05:49:08.179Z,3.25
2022-10-28T05:51:34.794Z,2.75
2022-10-28T05:54:01.368Z,2.40
2022-10-28T05:56:27.949Z,2.40
2022-10-28T05:58:54.546Z,2.40
2022-10-28T06:01:21.189Z,3.95
2022-10-28T06:03:48.701Z,2.60
2022-10-28T06:06:15.452Z,2.38
2022-10-28T06:08:42.271Z,2.28
2022-10-28T06:11:07.424Z,2.67
2022-10-28T06:13:34.051Z,2.67
2022-10-28T06:16:00.675Z,1.95
2022-10-28T06:18:27.304Z,2.78
2022-10-28T06:20:56.236Z,3.05
2022-10-28T06:23:24.837Z,2.17
2022-10-28T06:28:30.827Z,2.65
2022-10-28T06:31:07.274Z,2.45
2022-10-28T06:33:34.890Z,2.55
2022-10-28T06:36:02.356Z,2.47
2022-10-28T06:38:29.266Z,3.03
2022-10-28T06:40:58.027Z,2.85
2022-10-28T06:43:25.071Z,2.53
2022-10-28T06:45:55.346Z,2.50
2022-10-28T06:48:24.110Z,2.35
2022-10-28T06:50:50.769Z,2.53
2022-10-28T06:53:17.448Z,2.75
2022-10-28T06:55:48.839Z,2.65
2022-10-28T06:58:15.592Z,2.15
2022-10-28T07:00:42.210Z,3.80
2022-10-28T07:03:10.816Z,2.53
2022-10-28T07:05:37.757Z,3.00
2022-10-28T07:08:05.000Z,2.22
2022-10-28T07:10:31.677Z,2.83
2022-10-28T07:12:58.489Z,2.13
2022-10-28T07:15:25.967Z,1.50
2022-10-28T07:17:57.868Z,1.38
2022-10-28T07:20:27.411Z,0.85
2022-10-28T07:23:01.735Z,1.10
2022-10-28T07:25:30.878Z,0.40
2022-10-28T07:27:58.958Z,0.32
2022-10-28T07:30:26.504Z,0.55
2022-10-28T07:32:53.347Z,0.45
2022-10-28T07:35:20.194Z,0.88
2022-10-28T07:37:47.112Z,0.40
2022-10-28T07:40:14.247Z,0.50
2022-10-28T07:42:40.990Z,0.43
2022-10-28T07:45:08.061Z,0.40
2022-10-28T07:47:34.708Z,0.40
2022-10-28T07:50:01.316Z,0.45
2022-10-28T07:52:27.974Z,0.60
2022-10-28T07:54:54.606Z,0.60
2022-10-28T07:57:21.189Z,0.60
2022-10-28T07:59:48.013Z,0.60
2022-10-28T08:02:17.796Z,0.60
2022-10-28T08:04:45.239Z,0.70
2022-10-28T08:07:13.630Z,0.50
2022-10-28T08:09:41.365Z,0.50
2022-10-28T08:12:09.154Z,0.40
2022-10-28T08:14:35.793Z,0.60
2022-10-28T08:17:02.490Z,0.50
2022-10-28T08:19:29.162Z,0.40
2022-10-28T08:21:55.972Z,0.50
2022-10-28T08:24:22.886Z,0.60
2022-10-28T08:26:49.898Z,1.10
2022-10-28T08:29:16.776Z,0.80
2022-10-28T08:31:43.359Z,0.50
2022-10-28T08:34:10.757Z,0.60
2022-10-28T08:36:37.765Z,0.50
2022-10-28T08:39:04.761Z,0.80
2022-10-28T08:41:48.191Z,0.70
2022-10-28T08:44:31.066Z,0.45
2022-10-28T08:47:13.998Z,0.50
2022-10-28T08:49:44.461Z,1.13
2022-10-28T08:52:32.997Z,0.60
2022-10-28T08:55:07.780Z,0.43
2022-10-28T08:57:40.797Z,0.85
2022-10-28T09:00:16.929Z,0.80
2022-10-28T09:02:52.519Z,0.50
2022-10-28T09:05:25.207Z,0.50
2022-10-28T09:07:53.751Z,1.08
2022-10-28T09:10:42.532Z,0.60
2022-10-28T09:13:34.905Z,0.60
2022-10-28T09:16:16.722Z,0.77
2022-10-28T09:18:53.288Z,0.63
2022-10-28T09:21:31.030Z,0.55
2022-10-28T09:23:59.856Z,0.73
2022-10-28T09:26:45.039Z,0.60
2022-10-28T09:29:44.296Z,0.50
2022-10-28T09:32:20.392Z,0.40
2022-10-28T09:35:00.128Z,0.30
2022-10-28T09:37:39.661Z,0.63
2022-10-28T09:40:39.676Z,0.57
2022-10-28T09:43:06.201Z,0.40
2022-10-28T09:45:37.405Z,0.40
2022-10-28T09:48:31.015Z,0.40
2022-10-28T09:50:59.173Z,0.50
2022-10-28T09:53:53.143Z,0.50
2022-10-28T09:56:20.124Z,0.47
2022-10-28T09:58:48.654Z,0.43
2022-10-28T10:01:17.966Z,0.43
2022-10-28T10:03:47.852Z,0.40
2022-10-28T10:06:21.898Z,0.38
2022-10-28T10:08:48.855Z,0.32
2022-10-28T10:11:42.894Z,0.30
2022-10-28T10:14:19.401Z,0.30
2022-10-28T10:16:51.447Z,0.30
2022-10-28T10:19:18.266Z,0.30
2022-10-28T10:21:54.231Z,0.20
2022-10-28T10:24:31.282Z,0.40
2022-10-28T10:27:02.424Z,0.20
2022-10-28T10:29:30.772Z,0.38
2022-10-28T10:32:32.961Z,0.30
2022-10-28T10:35:18.483Z,0.40
2022-10-28T10:37:47.249Z,0.52
2022-10-28T10:40:23.082Z,0.50
2022-10-28T10:43:09.594Z,0.30
2022-10-28T10:45:36.751Z,0.30
2022-10-28T10:48:12.067Z,0.47
2022-10-28T10:50:39.471Z,0.30
2022-10-28T10:53:06.181Z,0.40
2022-10-28T10:55:36.732Z,0.63
2022-10-28T10:58:05.537Z,0.43
2022-10-28T11:00:47.980Z,0.25
2022-10-28T11:03:39.105Z,0.20
2022-10-28T11:06:23.089Z,0.40
2022-10-28T11:08:56.975Z,0.20
2022-10-28T11:11:32.581Z,0.30
2022-10-28T11:14:18.176Z,0.82
2022-10-28T11:16:54.098Z,0.32
2022-10-28T11:19:28.597Z,0.30
2022-10-28T11:22:28.963Z,0.25
2022-10-28T11:25:29.194Z,0.30
2022-10-28T11:28:14.212Z,0.20
2022-10-28T11:31:08.601Z,0.40
2022-10-28T11:33:44.073Z,0.30
2022-10-28T11:36:25.279Z,0.30
2022-10-28T11:39:03.794Z,0.45
2022-10-28T11:42:02.574Z,0.47
2022-10-28T11:44:56.806Z,0.30
2022-10-28T11:48:00.919Z,0.20
2022-10-28T11:50:46.451Z,0.30
2022-10-28T11:53:21.878Z,0.35
2022-10-28T11:55:59.406Z,0.40
2022-10-28T11:58:51.064Z,0.35
2022-10-28T12:02:15.677Z,0.40
2022-10-28T12:04:52.686Z,0.38
2022-10-28T12:07:39.479Z,0.28
2022-10-28T12:10:36.865Z,0.40
2022-10-28T12:13:25.686Z,0.40
2022-10-28T12:16:07.363Z,0.40
2022-10-28T12:18:58.984Z,1.17
2022-10-28T12:24:14.737Z,0.40
2022-10-28T12:26:45.756Z,1.55
2022-10-28T12:29:22.333Z,0.45
2022-10-28T12:32:12.575Z,0.50
2022-10-28T12:34:47.503Z,0.30
2022-10-28T12:37:37.680Z,0.50
2022-10-28T12:40:46.217Z,0.40
2022-10-28T12:43:25.073Z,0.35
2022-10-28T12:45:56.327Z,0.50
2022-10-28T12:48:35.474Z,0.43
2022-10-28T12:51:14.974Z,0.47
2022-10-28T12:53:46.406Z,0.55
2022-10-28T12:56:22.512Z,0.20
2022-10-28T12:59:01.349Z,0.68
2022-10-28T13:01:31.447Z,0.40
2022-10-28T13:03:58.502Z,0.40
2022-10-28T13:06:55.908Z,0.68
2022-10-28T13:09:37.930Z,0.52
2022-10-28T13:12:15.543Z,0.30
2022-10-28T13:15:10.060Z,0.75
2022-10-28T13:17:49.058Z,0.80
2022-10-28T13:20:41.721Z,0.52
2022-10-28T13:23:30.118Z,0.70
2022-10-28T13:26:08.672Z,0.40
2022-10-28T13:28:42.942Z,0.57
2022-10-28T13:31:09.998Z,0.60
2022-10-28T13:33:38.613Z,0.70
2022-10-28T13:36:15.830Z,0.70
2022-10-28T13:38:43.082Z,0.40
2022-10-28T13:41:25.890Z,0.40
2022-10-28T13:43:54.402Z,0.60
2022-10-28T13:46:58.366Z,0.70
2022-10-28T13:49:30.054Z,0.60
2022-10-28T13:52:05.195Z,0.70
2022-10-28T13:54:56.418Z,0.57
2022-10-28T13:57:25.982Z,0.55
2022-10-28T13:59:59.816Z,0.47
2022-10-28T14:02:46.008Z,0.98
2022-10-28T14:05:15.706Z,0.80
2022-10-28T14:08:17.468Z,0.60
2022-10-28T14:11:08.588Z,0.50
2022-10-28T14:13:46.943Z,0.50
2022-10-28T14:16:29.182Z,0.90
2022-10-28T14:19:10.715Z,0.98
2022-10-28T14:21:40.678Z,0.73
2022-10-28T14:24:10.608Z,0.70
2022-10-28T14:27:08.673Z,0.80
2022-10-28T14:30:10.155Z,1.10
2022-10-28T14:32:43.015Z,1.42
2022-10-28T14:35:15.418Z,0.45
2022-10-28T14:38:03.784Z,0.90
2022-10-28T14:40:51.606Z,1.92
2022-10-28T14:46:01.079Z,1.10
2022-10-28T14:48:36.264Z,2.50
2022-10-28T14:51:03.763Z,1.30
2022-10-28T14:53:35.540Z,1.00
2022-10-28T14:56:24.347Z,1.25
2022-10-28T14:58:52.561Z,1.20
2022-10-28T15:01:26.416Z,1.10
2022-10-28T15:04:06.365Z,0.90
2022-10-28T15:06:42.609Z,1.38
2022-10-28T15:09:21.814Z,1.50
2022-10-28T15:12:05.879Z,1.20
2022-10-28T15:14:36.825Z,1.73
2022-10-28T15:17:27.518Z,1.58
2022-10-28T15:19:59.302Z,1.65
2022-10-28T15:22:32.199Z,1.60
2022-10-28T15:25:13.403Z,2.05
2022-10-28T15:27:42.881Z,3.13
2022-10-28T15:30:21.189Z,1.60
2022-10-28T15:32:47.942Z,1.17
2022-10-28T15:35:38.443Z,1.80
2022-10-28T15:38:32.172Z,1.55
2022-10-28T15:40:59.049Z,1.13
2022-10-28T15:43:30.870Z,1.63
2022-10-28T15:46:15.437Z,0.98
2022-10-28T15:48:42.666Z,1.17
2022-10-28T15:51:13.432Z,1.42
2022-10-28T15:53:43.452Z,1.05
2022-10-28T15:56:19.816Z,0.88
2022-10-28T15:58:50.433Z,0.90
2022-10-28T16:01:39.279Z,1.52
2022-10-28T16:04:18.091Z,1.50
2022-10-28T16:06:45.960Z,0.82
2022-10-28T16:09:18.974Z,1.48
2022-10-28T16:11:50.161Z,1.05
2022-10-28T16:14:39.218Z,0.73
2022-10-28T16:17:16.329Z,1.70
2022-10-28T16:19:59.981Z,0.82
2022-10-28T16:22:32.616Z,1.05
2022-10-28T16:24:59.467Z,1.23
2022-10-28T16:27:31.338Z,1.10
2022-10-28T16:29:58.050Z,1.17
2022-10-28T16:32:34.897Z,1.70
2022-10-28T16:35:02.206Z,1.25
2022-10-28T16:37:32.079Z,1.40
2022-10-28T16:39:58.909Z,1.20
2022-10-28T16:42:26.436Z,1.30
2022-10-28T16:44:53.119Z,1.63
2022-10-28T16:47:22.218Z,1.17
2022-10-28T16:49:52.679Z,1.60
2022-10-28T16:52:29.197Z,1.38
2022-10-28T16:54:56.836Z,1.65
2022-10-28T16:59:55.889Z,1.42
2022-10-28T17:02:30.996Z,1.05
2022-10-28T17:04:58.773Z,1.17
2022-10-28T17:07:26.549Z,1.63
2022-10-28T17:09:53.234Z,1.60
2022-10-28T17:12:26.030Z,1.20
2022-10-28T17:14:53.182Z,1.00
2022-10-28T17:17:19.776Z,1.73
2022-10-28T17:19:46.870Z,1.45
2022-10-28T17:22:14.062Z,1.40
2022-10-28T17:24:40.733Z,1.20
2022-10-28T17:27:08.114Z,1.30
2022-10-28T17:29:35.032Z,2.10
2022-10-28T17:32:02.498Z,1.00
2022-10-28T17:34:29.304Z,1.40
2022-10-28T17:36:56.260Z,1.85
2022-10-28T17:39:26.111Z,1.30
2022-10-28T17:41:53.265Z,1.30
2022-10-28T17:44:19.939Z,1.25
2022-10-28T17:46:49.086Z,1.33
2022-10-28T17:49:15.804Z,1.33
2022-10-28T17:51:42.501Z,1.65
2022-10-28T17:54:09.448Z,1.77
2022-10-28T17:56:36.936Z,2.33
2022-10-28T17:59:04.645Z,1.75
2022-10-28T18:01:33.466Z,1.60
2022-10-28T18:04:00.635Z,1.63
2022-10-28T18:06:27.280Z,1.73
2022-10-28T18:08:53.935Z,1.50
2022-10-28T18:11:21.115Z,1.88
2022-10-28T18:13:49.990Z,2.10
2022-10-28T18:16:25.420Z,1.55
2022-10-28T18:18:53.327Z,2.05
2022-10-28T18:21:20.466Z,1.75
2022-10-28T18:23:54.667Z,1.85
2022-10-28T18:26:21.480Z,2.20
2022-10-28T18:28:49.157Z,2.08
2022-10-28T18:31:20.449Z,1.70
2022-10-28T18:33:47.486Z,1.45
2022-10-28T18:36:17.079Z,2.28
2022-10-28T18:38:44.000Z,1.63
2022-10-28T18:41:16.278Z,1.75
2022-10-28T18:43:42.984Z,2.42
2022-10-28T18:46:10.126Z,1.75
2022-10-28T18:48:36.914Z,1.80
2022-10-28T18:51:09.661Z,2.17
2022-10-28T18:53:42.277Z,2.35
2022-10-28T18:56:13.129Z,1.60
2022-10-28T18:58:39.904Z,1.67
2022-10-28T19:01:11.241Z,2.20
2022-10-28T19:03:38.477Z,1.67
2022-10-28T19:06:10.903Z,1.55
2022-10-28T19:08:38.577Z,1.83
2022-10-28T19:11:06.179Z,2.00
2022-10-28T19:13:38.670Z,2.00
2022-10-28T19:16:05.908Z,3.03
2022-10-28T19:18:35.475Z,2.15
2022-10-28T19:21:11.789Z,3.08
2022-10-28T19:23:38.767Z,4.28
2022-10-28T19:26:07.116Z,2.72
2022-10-28T19:28:41.380Z,2.20
2022-10-28T19:31:14.075Z,2.85
2022-10-28T19:33:43.172Z,3.22
2022-10-28T19:36:24.867Z,2.83
2022-10-28T19:38:55.511Z,2.92
2022-10-28T19:41:24.583Z,3.38
2022-10-28T19:43:59.624Z,3.63
2022-10-28T19:46:28.175Z,3.70
2022-10-28T19:48:58.247Z,3.92
2022-10-28T19:51:30.605Z,3.92
2022-10-28T19:53:59.652Z,3.20
2022-10-28T19:56:27.840Z,3.13
2022-10-28T19:58:57.264Z,2.85
2022-10-28T20:01:29.820Z,2.85
2022-10-28T20:03:57.250Z,2.55
2022-10-28T20:06:26.470Z,2.50
2022-10-28T20:08:53.499Z,2.60
2022-10-28T20:11:25.853Z,2.20
2022-10-28T20:13:55.287Z,2.55
2022-10-28T20:16:22.754Z,1.77
2022-10-28T20:18:49.388Z,2.15
2022-10-28T20:21:18.173Z,2.10
2022-10-28T20:23:47.046Z,2.28
2022-10-28T20:26:14.609Z,2.35
2022-10-28T20:28:41.648Z,2.30
2022-10-28T20:31:13.854Z,2.08
2022-10-28T20:33:42.589Z,1.77
2022-10-28T20:36:25.919Z,2.20
2022-10-28T20:38:55.809Z,2.35
2022-10-28T20:41:23.954Z,2.95
2022-10-28T20:43:51.838Z,3.60
2022-10-28T20:46:20.191Z,2.30
2022-10-28T20:48:47.626Z,2.17
2022-10-28T20:51:15.173Z,2.33
2022-10-28T20:53:41.905Z,2.97
2022-10-28T20:56:14.892Z,2.20
2022-10-28T20:58:41.517Z,2.30
2022-10-28T21:01:17.503Z,2.35
2022-10-28T21:03:44.700Z,1.90
2022-10-28T21:08:41.669Z,2.08
2022-10-28T21:11:12.124Z,2.17
2022-10-28T21:13:38.844Z,2.28
2022-10-28T21:16:07.538Z,1.90
2022-10-28T21:18:35.955Z,1.73
2022-10-28T21:21:02.949Z,1.77
2022-10-28T21:23:30.571Z,3.25
2022-10-28T21:26:07.927Z,2.58
2022-10-28T21:28:38.780Z,2.17
2022-10-28T21:31:14.043Z,2.03
2022-10-28T21:33:41.905Z,2.72
2022-10-28T21:36:12.388Z,2.47
2022-10-28T21:38:39.994Z,1.58
2022-10-28T21:41:08.831Z,2.17
2022-10-28T21:43:37.770Z,2.17
2022-10-28T21:46:05.324Z,1.67
2022-10-28T21:48:33.303Z,1.80
2022-10-28T21:51:02.334Z,2.15
2022-10-28T21:53:32.579Z,2.35
2022-10-28T21:56:28.543Z,1.90
2022-10-28T21:58:55.173Z,2.85
2022-10-28T22:01:24.225Z,3.05
2022-10-28T22:03:52.213Z,2.53
2022-10-28T22:06:18.872Z,2.92
2022-10-28T22:08:47.044Z,2.22
2022-10-28T22:11:19.080Z,2.10
2022-10-28T22:13:47.121Z,2.47
2022-10-28T22:16:15.731Z,2.30
2022-10-28T22:18:43.134Z,3.42
2022-10-28T22:21:15.785Z,2.25
2022-10-28T22:23:42.911Z,2.22
2022-10-28T22:26:12.498Z,1.58
2022-10-28T22:28:39.496Z,2.00
2022-10-28T22:31:08.792Z,1.92
2022-10-28T22:33:35.975Z,2.10
2022-10-28T22:36:05.571Z,2.17
2022-10-28T22:38:32.325Z,2.15
2022-10-28T22:41:06.438Z,1.80
2022-10-28T22:43:33.553Z,2.50
2022-10-28T22:46:00.790Z,2.13
2022-10-28T22:48:28.151Z,1.95
2022-10-28T22:50:54.817Z,1.75
2022-10-28T22:53:22.061Z,2.20
2022-10-28T22:55:49.317Z,1.77
2022-10-28T22:58:16.852Z,3.50
2022-10-28T23:00:47.146Z,2.58
2022-10-28T23:03:13.934Z,2.00
2022-10-28T23:05:40.744Z,1.45
2022-10-28T23:08:07.690Z,2.13
2022-10-28T23:10:34.582Z,1.70
2022-10-28T23:13:02.705Z,1.65
2022-10-28T23:15:30.301Z,2.05
2022-10-28T23:17:57.343Z,1.90
2022-10-28T23:20:25.276Z,1.98
2022-10-28T23:22:55.385Z,1.70
2022-10-28T23:25:21.980Z,2.67
2022-10-28T23:27:48.584Z,3.05
2022-10-28T23:30:15.370Z,4.50
2022-10-28T23:32:41.982Z,3.08
2022-10-28T23:35:08.753Z,2.10
2022-10-28T23:37:35.370Z,2.30
2022-10-28T23:40:02.074Z,2.42
2022-10-28T23:42:28.731Z,2.42
2022-10-28T23:44:55.330Z,2.47
2022-10-28T23:47:21.914Z,3.47
2022-10-28T23:49:48.557Z,2.35
2022-10-28T23:52:15.178Z,2.55
2022-10-28T23:54:42.446Z,2.65
2022-10-28T23:57:09.114Z,2.10
2022-10-28T23:59:35.882Z,2.22
